Terminal Aerodrome Forecast
Issued by NWS

Home | Current Version | Previous Version | Text Only | Print | Product List | Glossary On
Versions: 1 2 3 4 5 6 7 8 9 10 11 12
000
FTUS43 KEAX 111123
TAFSTJ
TAF
KSTJ 111123Z 1112/1212 25009KT P6SM SCT200
     FM111500 29012G22KT P6SM SCT250
     FM111700 31023G35KT P6SM FEW250
     FM112100 32022G35KT P6SM BKN040
     FM120300 34018G28KT P6SM SCT250
     FM120800 34010KT P6SM SKC=

USA.gov is the U.S. government's official web portal to all federal, state and local government web resources and services.